Terminal Aerodrome Forecast
Issued by NWS

Home | Current Version | Previous Version | Text Only | Print | Product List | Glossary On
Versions: 1 2 3 4 5 6 7 8 9 10 11 12 13 14
669
FTUS41 KBTV 231732
TAFMPV
TAF
KMPV 231732Z 2318/2418 27009G15KT P6SM FEW080
     FM240000 26005KT P6SM FEW150
     FM240700 27004KT P6SM SCT050=

USA.gov is the U.S. government's official web portal to all federal, state and local government web resources and services.